Time;durP1;ratioP1;P1;durP2;ratioP2;P2;SDS_P1;SDS_P2;PMS_P1;PMS_P2;Temp;Humidity;BMP_temperature;BMP_pressure;BME280_temperature;BME280_humidity;BME280_pressure;Samples;Min_cycle;Max_cycle;Signal;HPM_P1;HPM_P2
2022/01/09 00:02:57;;;;;;;;;57.00;44.20;;;;;6.95;38.50;97803.97;6089477;28;96571;-66
2022/01/09 00:06:01;;;;;;;;;49.20;39.80;;;;;6.95;38.02;97801.28;6089410;28;96489;-67
2022/01/09 00:09:04;;;;;;;;;57.00;45.00;;;;;6.99;38.23;97798.97;6088339;28;97112;-67
2022/01/09 00:12:09;;;;;;;;;53.00;43.00;;;;;7.00;38.18;97802.47;6090415;28;96386;-67
2022/01/09 00:15:13;;;;;;;;;50.40;40.60;;;;;7.00;37.92;97799.78;6088538;28;97037;-67
2022/01/09 00:18:16;;;;;;;;;48.80;38.00;;;;;7.03;38.11;97802.84;6072532;28;99584;-66
2022/01/09 00:21:19;;;;;;;;;45.20;36.40;;;;;7.03;38.24;97792.13;6090012;28;97015;-66
2022/01/09 00:24:23;;;;;;;;;44.67;35.67;;;;;7.03;38.02;97784.09;6090095;28;98617;-67
2022/01/09 00:27:28;;;;;;;;;47.00;38.00;;;;;7.00;38.18;97781.84;6093581;28;96493;-66
2022/01/09 00:30:31;;;;;;;;;48.60;38.60;;;;;6.97;38.49;97780.44;6075752;28;97899;-66
2022/01/09 00:33:34;;;;;;;;;47.00;39.00;;;;;6.96;38.69;97775.31;6091742;28;97112;-66
2022/01/09 00:36:38;;;;;;;;;50.80;39.40;;;;;6.91;38.93;97772.47;6092090;28;96996;-66
2022/01/09 00:39:41;;;;;;;;;50.00;40.00;;;;;6.87;39.33;97763.28;6092002;28;97429;-66
2022/01/09 00:42:46;;;;;;;;;50.80;41.00;;;;;6.76;39.02;97759.47;6091973;28;96738;-66
2022/01/09 00:45:49;;;;;;;;;51.33;40.33;;;;;6.68;39.02;97757.13;6091705;28;98531;-66
2022/01/09 00:48:52;;;;;;;;;52.60;42.00;;;;;6.60;39.22;97760.06;6092998;28;97430;-66
2022/01/09 00:51:56;;;;;;;;;55.00;44.00;;;;;6.51;39.40;97743.50;6093366;28;97146;-66
2022/01/09 00:54:59;;;;;;;;;55.75;45.00;;;;;6.43;39.71;97743.81;6092808;28;96659;-66
2022/01/09 00:58:04;;;;;;;;;64.20;48.20;;;;;6.36;40.14;97735.03;6091627;28;97141;-66
2022/01/09 01:01:07;;;;;;;;;66.25;52.00;;;;;6.30;40.72;97735.94;6091268;28;96942;-66
2022/01/09 01:04:11;;;;;;;;;74.00;60.00;;;;;6.25;41.10;97735.78;6092399;28;97013;-66
2022/01/09 01:07:14;;;;;;;;;72.80;56.00;;;;;6.17;41.10;97736.06;6089970;28;97074;-66
2022/01/09 01:10:17;;;;;;;;;74.40;58.80;;;;;6.08;41.42;97721.31;6089459;28;97476;-66
2022/01/09 01:13:22;;;;;;;;;72.00;57.00;;;;;6.02;41.43;97731.06;6090008;28;97261;-67
2022/01/09 01:16:25;;;;;;;;;74.00;59.00;;;;;5.96;41.67;97717.75;6090817;28;97333;-66
2022/01/09 01:19:32;;;;;;;;;73.00;59.00;;;;;5.90;41.70;97716.78;6073492;28;96635;-66
2022/01/09 01:22:58;;;;;;;;;69.00;52.00;;;;;5.84;41.67;97711.47;6074367;28;98325;-66
2022/01/09 01:26:02;;;;;;;;;68.00;53.00;;;;;5.63;41.50;97683.25;6092219;28;96810;-66
2022/01/09 01:29:07;;;;;;;;;64.00;50.40;;;;;5.79;41.29;97711.28;6091458;28;98013;-66
2022/01/09 01:32:10;;;;;;;;;60.80;47.60;;;;;5.79;41.08;97704.09;6074038;28;98409;-66
2022/01/09 01:35:14;;;;;;;;;54.50;43.00;;;;;5.81;40.68;97707.38;6091237;28;97386;-66
2022/01/09 01:38:17;;;;;;;;;42.00;35.00;;;;;5.86;40.20;97699.50;6092657;28;96576;-66
2022/01/09 01:41:20;;;;;;;;;30.40;29.20;;;;;5.94;39.68;97698.44;6091217;28;97844;-66
2022/01/09 01:44:25;;;;;;;;;32.60;29.00;;;;;6.01;39.45;97688.50;6092427;28;97438;-66
2022/01/09 01:47:29;;;;;;;;;38.00;32.40;;;;;6.05;39.56;97689.69;6092725;28;97251;-66
2022/01/09 01:50:36;;;;;;;;;37.20;30.60;;;;;6.05;39.23;97684.31;6092668;28;96563;-66
2022/01/09 01:53:40;;;;;;;;;29.00;23.40;;;;;6.05;39.02;97681.66;6092705;28;97419;-66
2022/01/09 01:56:43;;;;;;;;;29.50;26.00;;;;;6.08;39.06;97681.19;6092889;28;97209;-66
2022/01/09 01:59:47;;;;;;;;;27.40;26.00;;;;;6.12;38.98;97671.69;6092543;28;96445;-66
2022/01/09 02:02:51;;;;;;;;;31.40;27.00;;;;;6.15;39.15;97667.75;6092205;28;96941;-66
2022/01/09 02:05:55;;;;;;;;;30.00;27.00;;;;;6.20;39.13;97668.72;6090692;28;96937;-66
2022/01/09 02:08:58;;;;;;;;;31.80;28.00;;;;;6.21;39.42;97658.81;6091971;28;97090;-66
2022/01/09 02:12:01;;;;;;;;;28.60;27.00;;;;;6.20;39.45;97658.03;6092322;28;97471;-66
2022/01/09 02:15:27;;;;;;;;;29.60;26.00;;;;;6.16;39.80;97659.47;6092388;28;97639;-66
2022/01/09 02:18:31;;;;;;;;;33.00;30.00;;;;;6.18;39.96;97652.06;6090696;28;97598;-66
2022/01/09 02:21:36;;;;;;;;;33.00;30.00;;;;;6.24;40.07;97653.84;6091509;28;97610;-66
2022/01/09 02:24:39;;;;;;;;;27.20;26.20;;;;;6.28;39.92;97648.88;6092239;28;96936;-65
2022/01/09 02:27:43;;;;;;;;;29.40;27.00;;;;;6.25;39.78;97643.97;6092283;28;96540;-65
2022/01/09 02:30:49;;;;;;;;;30.00;26.00;;;;;6.29;39.49;97642.47;6091589;28;97425;-65
2022/01/09 02:33:52;;;;;;;;;31.67;28.67;;;;;6.33;40.21;97640.97;6086701;28;97219;-66
2022/01/09 02:36:57;;;;;;;;;34.00;29.00;;;;;6.34;40.00;97639.94;6092267;28;97412;-66
2022/01/09 02:40:00;;;;;;;;;40.00;32.80;;;;;6.34;40.22;97645.28;6091777;28;96985;-66
2022/01/09 02:43:04;;;;;;;;;35.40;30.40;;;;;6.34;40.41;97631.91;6089973;28;96725;-66
2022/01/09 02:46:15;;;;;;;;;39.00;32.40;;;;;6.33;40.07;97638.31;6089853;28;97218;-66
2022/01/09 02:49:18;;;;;;;;;32.50;30.50;;;;;6.34;39.99;97627.38;6091488;28;97420;-66
2022/01/09 02:52:31;;;;;;;;;35.60;31.60;;;;;6.35;40.26;97631.66;6090476;28;97035;-66
2022/01/09 02:55:34;;;;;;;;;36.00;32.00;;;;;6.38;40.40;97625.88;6090932;28;98195;-66
2022/01/09 02:58:38;;;;;;;;;37.75;32.00;;;;;6.40;40.80;97623.78;6091688;28;97456;-65
2022/01/09 03:01:41;;;;;;;;;45.60;37.40;;;;;6.40;40.83;97620.31;6090474;28;96556;-66
2022/01/09 03:04:44;;;;;;;;;46.00;35.60;;;;;6.41;40.70;97624.59;6091064;28;96566;-66
2022/01/09 03:07:49;;;;;;;;;52.00;43.00;;;;;6.37;41.04;97613.53;6091548;28;97564;-66
2022/01/09 03:10:52;;;;;;;;;53.33;44.00;;;;;6.37;41.08;97612.72;6087494;28;97490;-66
2022/01/09 03:13:56;;;;;;;;;53.00;40.00;;;;;6.37;41.36;97605.50;6089455;28;97161;-65
2022/01/09 03:16:59;;;;;;;;;49.60;40.00;;;;;6.35;41.59;97609.47;6089147;28;96541;-66
2022/01/09 03:20:05;;;;;;;;;53.00;42.60;;;;;6.37;41.78;97602.00;6088532;28;97183;-65
2022/01/09 03:23:10;;;;;;;;;60.00;46.00;;;;;6.36;41.69;97601.19;6087267;28;98574;-66
2022/01/09 03:26:13;;;;;;;;;66.80;52.00;;;;;6.40;41.71;97599.69;6090483;28;97259;-66
2022/01/09 03:29:16;;;;;;;;;71.60;56.60;;;;;6.35;42.28;97604.91;6089316;28;97793;-65
2022/01/09 03:32:20;;;;;;;;;71.80;56.80;;;;;6.30;42.54;97603.97;6073478;28;96973;-66
2022/01/09 03:35:25;;;;;;;;;68.80;53.40;;;;;6.30;42.42;97601.28;6050654;28;97127;-65
2022/01/09 03:38:31;;;;;;;;;71.00;55.00;;;;;6.33;42.55;97600.81;6049550;28;96904;-65
2022/01/09 03:41:35;;;;;;;;;72.80;55.40;;;;;6.33;42.65;97598.16;6065904;28;96911;-65
2022/01/09 03:44:38;;;;;;;;;65.80;51.00;;;;;6.32;42.67;97594.66;6033957;28;96944;-66
2022/01/09 03:47:42;;;;;;;;;66.50;51.00;;;;;6.35;42.17;97586.16;6065861;28;96941;-66
2022/01/09 03:50:50;;;;;;;;;66.00;52.00;;;;;6.37;42.62;97581.41;6050459;28;96790;-65
2022/01/09 03:53:55;;;;;;;;;67.00;52.00;;;;;6.39;42.58;97570.50;6090038;28;97651;-65
2022/01/09 03:56:58;;;;;;;;;67.00;53.00;;;;;6.41;42.50;97563.03;6080651;28;96725;-66
2022/01/09 04:00:01;;;;;;;;;71.60;55.00;;;;;6.43;42.49;97564.44;6053108;28;96969;-65
2022/01/09 04:03:05;;;;;;;;;71.00;57.40;;;;;6.05;42.52;97508.56;6057735;28;97397;-65
2022/01/09 04:06:08;;;;;;;;;77.00;63.00;;;;;6.36;42.98;97560.22;6094257;28;97223;-65
2022/01/09 04:09:19;;;;;;;;;71.60;57.00;;;;;6.34;43.31;97552.44;6092213;28;96838;-65
2022/01/09 04:12:32;;;;;;;;;73.40;59.00;;;;;6.36;43.29;97550.34;6079660;28;96563;-65
2022/01/09 04:15:35;;;;;;;;;74.00;61.00;;;;;6.35;43.24;97546.00;6070693;28;97432;-67
2022/01/09 04:18:39;;;;;;;;;73.00;60.40;;;;;6.35;43.16;97547.91;6051656;28;98624;-66
2022/01/09 04:21:42;;;;;;;;;72.20;57.20;;;;;6.34;42.77;97538.22;6077983;28;97081;-65
2022/01/09 04:24:47;;;;;;;;;74.25;60.50;;;;;6.31;43.24;97542.16;6071891;28;97412;-66
2022/01/09 04:27:51;;;;;;;;;71.40;54.60;;;;;6.32;42.92;97537.63;6068783;28;97010;-66
2022/01/09 04:30:54;;;;;;;;;62.00;47.00;;;;;6.35;41.77;97537.97;6080999;28;97621;-66
2022/01/09 04:33:58;;;;;;;;;57.25;45.00;;;;;6.37;41.55;97541.25;6093899;28;96431;-65
2022/01/09 04:37:01;;;;;;;;;58.20;46.00;;;;;6.38;41.36;97539.41;6076549;28;97339;-65
2022/01/09 04:40:10;;;;;;;;;62.25;47.75;;;;;6.42;41.38;97544.06;6093345;28;96565;-65
2022/01/09 04:43:15;;;;;;;;;62.60;47.80;;;;;6.35;41.65;97546.00;6093657;28;97151;-65
2022/01/09 04:46:24;;;;;;;;;63.00;48.50;;;;;6.28;41.76;97545.31;6105887;28;97041;-66
2022/01/09 04:49:35;;;;;;;;;62.60;48.00;;;;;6.23;42.00;97539.81;6089565;28;97325;-65
2022/01/09 04:52:39;;;;;;;;;62.40;48.00;;;;;6.18;41.71;97537.00;6086923;28;97370;-66
2022/01/09 04:55:49;;;;;;;;;62.40;48.00;;;;;6.12;41.78;97545.94;6091299;28;97435;-66
2022/01/09 04:58:52;;;;;;;;;61.75;48.00;;;;;6.02;42.01;97541.13;6091776;28;97065;-66
2022/01/09 05:01:56;;;;;;;;;56.20;45.80;;;;;6.06;41.56;97544.97;6093313;28;97493;-65
2022/01/09 05:04:59;;;;;;;;;56.00;46.00;;;;;5.97;41.53;97545.50;6092125;28;98311;-65
2022/01/09 05:08:02;;;;;;;;;66.40;48.40;;;;;5.99;41.73;97554.94;6093822;28;97054;-66
2022/01/09 05:11:07;;;;;;;;;61.60;47.40;;;;;6.00;41.64;97543.22;6090531;28;97165;-66
2022/01/09 05:14:10;;;;;;;;;61.20;48.60;;;;;5.98;41.92;97549.81;6093383;28;97427;-65
2022/01/09 05:17:13;;;;;;;;;64.40;49.40;;;;;5.93;42.30;97542.47;6092819;28;96785;-64
2022/01/09 05:20:17;;;;;;;;;61.75;47.75;;;;;5.93;42.08;97537.13;6091672;28;96973;-65
2022/01/09 05:23:20;;;;;;;;;61.50;48.00;;;;;5.90;42.18;97542.94;6075469;28;98045;-65
2022/01/09 05:26:25;;;;;;;;;62.00;48.00;;;;;5.89;42.21;97543.16;6091416;28;97510;-67
2022/01/09 05:29:28;;;;;;;;;61.00;48.25;;;;;5.85;42.24;97545.44;6093085;28;97477;-65
2022/01/09 05:32:31;;;;;;;;;61.00;48.00;;;;;5.81;42.42;97554.13;6075463;28;97335;-66
2022/01/09 05:35:34;;;;;;;;;61.75;48.25;;;;;5.80;42.48;97555.16;6091198;28;97138;-66
2022/01/09 05:38:38;;;;;;;;;61.67;48.00;;;;;5.78;42.76;97549.19;6093505;28;96679;-66
2022/01/09 05:41:45;;;;;;;;;60.75;48.50;;;;;5.80;42.59;97553.31;6083000;28;97466;-66
2022/01/09 05:44:48;;;;;;;;;63.60;50.00;;;;;5.84;42.62;97548.31;6107105;28;96893;-65
2022/01/09 05:47:51;;;;;;;;;63.60;50.00;;;;;5.83;42.95;97547.50;6091968;28;97429;-66
2022/01/09 05:50:55;;;;;;;;;62.00;48.00;;;;;5.83;42.97;97539.47;6090506;28;97871;-65
2022/01/09 05:53:58;;;;;;;;;64.00;50.00;;;;;5.85;42.92;97544.59;6090845;28;98003;-65
2022/01/09 05:57:03;;;;;;;;;64.60;51.40;;;;;5.74;43.31;97531.97;6091774;28;96816;-65
2022/01/09 06:00:08;;;;;;;;;63.50;49.50;;;;;5.83;43.48;97549.34;6090607;28;99511;-65
2022/01/09 06:03:20;;;;;;;;;65.00;51.00;;;;;5.83;43.56;97562.72;6091290;28;97485;-65
2022/01/09 06:06:24;;;;;;;;;69.40;52.80;;;;;5.85;43.78;97564.16;6091212;28;97397;-65
2022/01/09 06:09:28;;;;;;;;;71.50;57.00;;;;;5.86;43.52;97573.00;6091543;28;96739;-66
2022/01/09 06:12:32;;;;;;;;;70.25;55.25;;;;;5.88;43.14;97581.63;6089379;28;96607;-65
2022/01/09 06:15:36;;;;;;;;;71.00;56.50;;;;;5.91;43.35;97587.34;6091344;28;96770;-65
2022/01/09 06:18:40;;;;;;;;;64.20;50.00;;;;;5.95;43.41;97585.88;6106016;28;97046;-65
2022/01/09 06:21:44;;;;;;;;;56.60;44.00;;;;;5.93;42.97;97582.59;6090155;28;97091;-66
2022/01/09 06:24:50;;;;;;;;;61.00;46.00;;;;;5.95;43.08;97587.72;6091177;28;97457;-65
2022/01/09 06:27:55;;;;;;;;;59.20;46.80;;;;;5.99;43.28;97597.75;6089783;28;96975;-66
2022/01/09 06:30:58;;;;;;;;;62.50;49.75;;;;;6.00;43.33;97569.16;6088859;28;96925;-65
2022/01/09 06:34:02;;;;;;;;;67.00;52.00;;;;;6.03;43.43;97576.72;6072997;28;97515;-65
2022/01/09 06:37:05;;;;;;;;;55.40;44.00;;;;;5.99;42.86;97587.06;6083940;28;96945;-66
2022/01/09 06:40:10;;;;;;;;;59.25;46.00;;;;;5.96;43.10;97586.69;6066863;28;96974;-66
2022/01/09 06:43:14;;;;;;;;;60.00;46.00;;;;;5.90;43.59;97572.34;6067591;28;96675;-65
2022/01/09 06:46:18;;;;;;;;;59.60;44.60;;;;;5.88;43.44;97582.44;6050846;28;97452;-65
2022/01/09 06:49:21;;;;;;;;;57.75;45.00;;;;;5.87;43.49;97582.66;6073674;28;98372;-65
2022/01/09 06:52:24;;;;;;;;;56.00;44.00;;;;;5.82;43.54;97587.81;6091811;28;96922;-66
2022/01/09 06:55:29;;;;;;;;;57.00;45.00;;;;;5.78;43.83;97597.34;6058608;28;97747;-65
2022/01/09 06:58:36;;;;;;;;;55.75;44.00;;;;;5.83;43.82;97594.81;6074063;28;97435;-66
2022/01/09 07:01:40;;;;;;;;;56.20;45.00;;;;;5.88;43.86;97595.81;6050277;28;97442;-66
2022/01/09 07:04:43;;;;;;;;;55.40;45.00;;;;;5.95;43.88;97593.91;6063922;28;97692;-66
2022/01/09 07:07:47;;;;;;;;;60.25;46.50;;;;;5.99;43.70;97595.06;6066119;28;96671;-65
2022/01/09 07:10:50;;;;;;;;;60.40;46.00;;;;;6.05;43.43;97596.88;6065083;28;97563;-66
2022/01/09 07:13:55;;;;;;;;;57.80;46.00;;;;;6.06;43.55;97587.78;6063303;28;97329;-65
2022/01/09 07:16:59;;;;;;;;;62.20;48.20;;;;;6.13;43.24;97594.91;6064922;28;96879;-66
2022/01/09 07:20:02;;;;;;;;;61.75;47.00;;;;;6.02;43.65;97567.88;6040578;28;98348;-66
2022/01/09 07:23:06;;;;;;;;;62.00;48.20;;;;;6.22;43.45;97589.03;6064610;28;96996;-66
2022/01/09 07:26:09;;;;;;;;;61.20;48.00;;;;;6.24;43.46;97578.91;6067032;28;96437;-66
2022/01/09 07:29:14;;;;;;;;;63.00;49.75;;;;;6.28;43.83;97581.94;6070018;28;96835;-66
2022/01/09 07:32:17;;;;;;;;;64.40;50.00;;;;;6.35;43.52;97585.38;6088083;28;97635;-66
2022/01/09 07:35:21;;;;;;;;;63.00;49.60;;;;;6.37;43.50;97585.94;6087262;28;98648;-67
2022/01/09 07:38:24;;;;;;;;;64.00;48.80;;;;;6.43;43.08;97585.03;6087704;28;97459;-66
2022/01/09 07:41:27;;;;;;;;;63.00;49.00;;;;;6.46;43.11;97581.91;6088299;28;97594;-66
2022/01/09 07:44:32;;;;;;;;;63.00;50.00;;;;;6.50;43.19;97580.41;6087834;28;96620;-66
2022/01/09 07:47:36;;;;;;;;;64.00;49.00;;;;;6.57;42.92;97583.00;6074347;28;96878;-66
2022/01/09 07:50:39;;;;;;;;;63.00;50.00;;;;;6.63;42.84;97576.75;6087654;28;97457;-66
2022/01/09 07:53:42;;;;;;;;;63.00;50.00;;;;;6.71;43.02;97574.53;6091274;28;97119;-66
2022/01/09 07:56:46;;;;;;;;;64.00;50.00;;;;;6.82;42.98;97568.41;6091594;28;97257;-66
2022/01/09 07:59:51;;;;;;;;;62.75;48.00;;;;;6.95;42.58;97576.22;6087043;28;97017;-66
2022/01/09 08:02:54;;;;;;;;;66.00;51.00;;;;;7.09;42.63;97576.00;6086670;28;98258;-66
2022/01/09 08:05:57;;;;;;;;;70.00;52.00;;;;;7.20;42.46;97575.22;6088104;28;97554;-66
2022/01/09 08:09:01;;;;;;;;;72.00;54.60;;;;;7.32;42.26;97570.69;6087134;28;97081;-66
2022/01/09 08:12:05;;;;;;;;;72.60;55.00;;;;;7.44;42.02;97565.31;6087596;28;97194;-66
2022/01/09 08:15:11;;;;;;;;;71.20;55.20;;;;;7.55;41.87;97570.66;6103225;28;97120;-66
2022/01/09 08:18:14;;;;;;;;;72.00;54.25;;;;;7.72;41.87;97565.41;6087002;28;97620;-66
2022/01/09 08:21:19;;;;;;;;;68.00;53.00;;;;;8.18;41.05;97559.94;6103999;28;99467;-66
2022/01/09 08:24:23;;;;;;;;;68.40;53.00;;;;;9.74;38.52;97568.19;6067426;28;97714;-66
2022/01/09 08:27:26;;;;;;;;;72.40;53.00;;;;;11.92;35.35;97558.50;6080866;28;97040;-66
2022/01/09 08:30:31;;;;;;;;;70.00;53.00;;;;;12.71;33.15;97562.81;6089194;28;97511;-65
2022/01/09 08:33:34;;;;;;;;;70.25;54.00;;;;;14.26;31.04;97549.41;6070203;28;96873;-66
2022/01/09 08:36:38;;;;;;;;;70.00;55.00;;;;;15.93;28.47;97548.22;6080286;28;96708;-65
2022/01/09 08:39:44;;;;;;;;;71.40;56.40;;;;;17.23;26.23;97536.66;6088968;28;96882;-66
2022/01/09 08:42:48;;;;;;;;;70.40;56.40;;;;;18.59;24.17;97555.16;6088844;28;98005;-66
2022/01/09 08:45:53;;;;;;;;;68.40;52.80;;;;;19.60;22.97;97553.91;6091511;28;96887;-65
2022/01/09 08:48:56;;;;;;;;;70.00;54.60;;;;;20.47;22.02;97555.97;6091494;28;97063;-65
2022/01/09 08:51:59;;;;;;;;;66.60;51.00;;;;;21.32;20.84;97548.97;6091143;28;97253;-65
2022/01/09 08:55:05;;;;;;;;;66.00;51.00;;;;;22.10;19.97;97552.38;6092425;28;96747;-64
2022/01/09 08:58:08;;;;;;;;;68.00;51.50;;;;;22.70;19.49;97550.19;6074621;28;99596;-65
2022/01/09 09:01:13;;;;;;;;;66.40;51.00;;;;;23.25;18.34;97543.66;6091614;28;97193;-64
2022/01/09 09:04:17;;;;;;;;;64.60;51.00;;;;;23.65;17.74;97547.47;6090416;28;96743;-65
2022/01/09 09:07:24;;;;;;;;;64.40;50.00;;;;;24.19;17.40;97541.91;6089269;28;97768;-66
2022/01/09 09:10:28;;;;;;;;;63.60;50.00;;;;;24.55;16.78;97546.63;6089719;28;97422;-65
2022/01/09 09:13:31;;;;;;;;;65.00;51.00;;;;;24.94;16.73;97543.16;6089286;28;97087;-65
2022/01/09 09:16:36;;;;;;;;;64.00;49.00;;;;;25.19;16.23;97541.16;6087356;28;97506;-66
2022/01/09 09:19:40;;;;;;;;;63.00;50.00;;;;;25.55;16.21;97526.44;6096264;28;98692;-66
2022/01/09 09:22:43;;;;;;;;;64.40;51.00;;;;;25.84;16.01;97522.50;6089608;28;96836;-67
2022/01/09 09:25:47;;;;;;;;;64.60;51.00;;;;;25.98;16.07;97527.59;6091412;28;97852;-66
2022/01/09 09:28:50;;;;;;;;;65.00;50.00;;;;;25.96;15.46;97522.41;6105079;28;97249;-65
2022/01/09 09:31:56;;;;;;;;;67.00;51.00;;;;;25.53;15.43;97514.91;6088276;28;96716;-65
2022/01/09 09:34:59;;;;;;;;;67.00;52.80;;;;;25.40;15.62;97519.69;6090833;28;97947;-66
2022/01/09 09:38:03;;;;;;;;;66.75;52.00;;;;;25.29;16.04;97504.78;6086019;28;97376;-66
2022/01/09 09:41:07;;;;;;;;;65.20;50.00;;;;;25.61;16.00;97515.97;6090825;28;98224;-66
2022/01/09 09:44:10;;;;;;;;;64.00;51.00;;;;;25.98;15.89;97522.88;6096028;28;97650;-64
2022/01/09 09:47:18;;;;;;;;;63.40;50.00;;;;;25.88;15.28;97515.91;6089744;28;97075;-65
2022/01/09 09:50:23;;;;;;;;;62.75;50.75;;;;;25.86;15.83;97520.16;6088560;28;96878;-66
2022/01/09 09:53:26;;;;;;;;;60.00;47.00;;;;;25.65;15.29;97512.16;6084921;28;97942;-65
2022/01/09 09:56:29;;;;;;;;;59.40;48.00;;;;;25.61;15.49;97515.97;6087349;28;99551;-66
2022/01/09 09:59:36;;;;;;;;;61.50;49.00;;;;;25.59;15.46;97505.28;6087282;28;97761;-66
2022/01/09 10:02:47;;;;;;;;;61.60;47.00;;;;;25.88;15.57;97512.34;6089477;28;97289;-66
2022/01/09 10:05:50;;;;;;;;;61.60;47.00;;;;;25.96;15.26;97516.88;6090440;28;96903;-66
2022/01/09 10:08:54;;;;;;;;;60.00;47.00;;;;;25.96;15.10;97510.56;6090906;28;97540;-66
2022/01/09 10:12:00;;;;;;;;;56.00;45.00;;;;;25.72;15.31;97523.34;6090453;28;96579;-66
2022/01/09 10:15:08;;;;;;;;;58.00;46.00;;;;;25.80;15.12;97522.38;6088737;28;97521;-67
2022/01/09 10:18:12;;;;;;;;;52.60;42.40;;;;;25.65;15.16;97520.44;6089929;28;96715;-66
2022/01/09 10:21:18;;;;;;;;;56.40;44.40;;;;;25.68;15.17;97516.13;6085719;28;99660;-66
2022/01/09 10:24:21;;;;;;;;;53.00;43.00;;;;;25.78;15.19;97512.88;6086963;28;97328;-65
2022/01/09 10:27:33;;;;;;;;;54.20;43.80;;;;;25.70;15.73;97511.88;6089562;28;98530;-65
2022/01/09 10:30:40;;;;;;;;;53.00;42.00;;;;;25.74;15.19;97507.25;6089897;28;96821;-66
2022/01/09 10:33:57;;;;;;;;;50.00;40.00;;;;;26.07;15.21;97504.16;6090797;28;97229;-66
2022/01/09 10:37:01;;;;;;;;;50.00;40.00;;;;;26.29;15.02;97500.00;6089974;28;96528;-66
2022/01/09 10:40:08;;;;;;;;;53.00;43.00;;;;;26.37;14.97;97492.69;6089030;28;97526;-65
2022/01/09 10:43:14;;;;;;;;;50.00;40.80;;;;;26.53;14.87;97493.47;6087998;28;96875;-65
2022/01/09 10:46:17;;;;;;;;;48.60;39.60;;;;;26.57;14.59;97492.38;6099990;28;96812;-67
2022/01/09 10:49:22;;;;;;;;;52.40;42.00;;;;;26.61;14.55;97493.25;6090425;28;97706;-66
2022/01/09 10:52:27;;;;;;;;;49.40;40.80;;;;;26.39;14.56;97487.63;6089514;28;97219;-66
2022/01/09 10:55:32;;;;;;;;;47.40;39.20;;;;;26.10;14.57;97480.53;6090157;28;97008;-67
2022/01/09 10:58:37;;;;;;;;;47.00;39.00;;;;;25.70;15.15;97483.47;6090240;28;96691;-66
2022/01/09 11:01:41;;;;;;;;;46.80;38.00;;;;;25.50;15.39;97488.03;6090429;28;96565;-66
2022/01/09 11:04:47;;;;;;;;;49.20;39.00;;;;;25.58;15.38;97481.59;6088351;28;97610;-66
2022/01/09 11:07:51;;;;;;;;;46.60;37.40;;;;;25.58;14.98;97473.31;6088388;28;97345;-67
2022/01/09 11:10:55;;;;;;;;;46.25;37.25;;;;;25.39;15.27;97476.72;6087655;28;97498;-67
2022/01/09 11:14:01;;;;;;;;;44.40;36.00;;;;;25.06;15.39;97475.34;6085926;28;98381;-67
2022/01/09 11:17:05;;;;;;;;;46.25;37.00;;;;;24.70;15.58;97482.53;6088115;28;97801;-66
2022/01/09 11:20:11;;;;;;;;;41.20;35.20;;;;;24.63;15.80;97482.31;6088725;28;97230;-66
2022/01/09 11:23:17;;;;;;;;;40.40;33.40;;;;;24.24;15.73;97478.34;6088339;28;97514;-67
2022/01/09 11:26:28;;;;;;;;;43.40;35.00;;;;;24.08;15.95;97480.16;6087165;28;96782;-65
2022/01/09 11:29:41;;;;;;;;;41.20;35.00;;;;;23.42;16.64;97473.91;6087233;28;98486;-66
2022/01/09 11:32:52;;;;;;;;;42.25;34.50;;;;;23.41;16.27;97466.84;6079130;28;97474;-67
2022/01/09 11:36:07;;;;;;;;;41.20;34.00;;;;;23.32;16.77;97475.94;6086801;28;97229;-65
2022/01/09 11:39:18;;;;;;;;;36.00;32.00;;;;;23.31;16.72;97466.09;6087705;28;97606;-66
2022/01/09 11:42:21;;;;;;;;;38.20;33.00;;;;;23.04;16.75;97466.69;6086795;28;96870;-66
2022/01/09 11:45:47;;;;;;;;;36.00;32.00;;;;;22.76;16.87;97466.44;6086213;28;96895;-67
2022/01/09 11:49:06;;;;;;;;;20.00;17.40;;;;;22.71;16.08;97466.63;6099611;28;97295;-65
2022/01/09 11:52:10;;;;;;;;;10.25;10.00;;;;;22.40;14.82;97472.47;6088197;28;97503;-66
2022/01/09 11:55:14;;;;;;;;;10.40;10.00;;;;;22.23;15.26;97463.53;6073355;28;97795;-65
2022/01/09 11:58:20;;;;;;;;;11.60;10.00;;;;;21.97;15.31;97466.41;6084755;28;97623;-66
2022/01/09 12:01:35;;;;;;;;;10.00;9.00;;;;;21.37;15.74;97469.31;6097348;28;98457;-66
2022/01/09 12:04:54;;;;;;;;;12.00;11.00;;;;;;;;6088160;28;97695;-65
2022/01/09 12:08:05;;;;;;;;;12.60;11.00;;;;;20.79;15.68;97473.38;6086468;28;97128;-67
2022/01/09 12:11:08;;;;;;;;;9.40;9.00;;;;;20.67;15.41;97463.03;6100376;28;96731;-67
2022/01/09 12:14:32;;;;;;;;;9.00;9.00;;;;;20.72;15.86;97468.38;6085016;28;97581;-66
2022/01/09 12:17:43;;;;;;;;;9.00;9.00;;;;;20.36;15.79;97478.00;6087232;28;98023;-66
2022/01/09 12:20:49;;;;;;;;;10.00;9.40;;;;;20.32;15.96;97464.16;6091824;28;97464;-67
2022/01/09 12:24:33;;;;;;;;;10.50;10.00;;;;;20.33;15.92;97463.00;6091451;28;96566;-66
2022/01/09 12:27:48;;;;;;;;;9.80;9.00;;;;;20.25;16.02;97458.31;6091535;28;97499;-68
2022/01/09 12:30:57;;;;;;;;;12.40;11.00;;;;;20.48;16.24;97462.56;6092827;28;98085;-66
2022/01/09 12:34:00;;;;;;;;;11.25;10.25;;;;;20.40;16.04;97468.03;6090735;28;97487;-67
2022/01/09 12:37:03;;;;;;;;;11.00;11.00;;;;;20.52;15.77;97466.28;6068616;28;96847;-65
2022/01/09 12:40:10;;;;;;;;;15.50;14.00;;;;;20.46;15.68;97456.59;6067717;28;97168;-67
2022/01/09 12:43:15;;;;;;;;;11.60;11.00;;;;;20.04;16.01;97462.75;6034722;28;99261;-67
2022/01/09 12:46:21;;;;;;;;;12.75;12.50;;;;;19.83;16.35;97463.34;6064498;28;97371;-66
2022/01/09 12:49:24;;;;;;;;;10.00;9.60;;;;;19.28;16.72;97465.59;6037786;28;97289;-66
2022/01/09 12:52:28;;;;;;;;;13.50;12.00;;;;;18.64;17.33;97457.88;6067650;28;97738;-66
2022/01/09 12:55:36;;;;;;;;;12.50;12.00;;;;;18.05;18.07;97455.06;6061519;28;97505;-64
2022/01/09 12:58:43;;;;;;;;;14.00;14.00;;;;;17.36;18.75;97458.00;6068451;28;97480;-65
2022/01/09 13:01:48;;;;;;;;;13.50;11.50;;;;;17.06;19.20;97460.16;6067632;28;96734;-66
2022/01/09 13:04:51;;;;;;;;;15.60;13.60;;;;;16.86;19.44;97468.66;6052491;28;97976;-64
2022/01/09 13:07:59;;;;;;;;;13.00;12.33;;;;;16.36;20.01;97467.47;6034952;28;96923;-65
2022/01/09 13:11:05;;;;;;;;;15.00;13.00;;;;;15.72;20.73;97478.88;6067511;28;96696;-64
2022/01/09 13:14:10;;;;;;;;;14.75;14.75;;;;;15.46;20.92;97470.16;6046302;28;97770;-66
2022/01/09 13:17:13;;;;;;;;;12.00;11.00;;;;;15.16;21.27;97471.25;6066618;28;97506;-64
2022/01/09 13:20:34;;;;;;;;;14.00;13.00;;;;;14.79;21.59;97458.28;6069758;28;97168;-66
2022/01/09 13:23:54;;;;;;;;;15.00;11.80;;;;;14.62;21.88;97471.41;6068047;28;97261;-65
2022/01/09 13:27:02;;;;;;;;;15.00;14.00;;;;;14.18;22.47;97445.09;6067213;28;97676;-65
2022/01/09 13:30:07;;;;;;;;;13.00;13.00;;;;;14.02;23.04;97473.38;6053107;28;96640;-65
2022/01/09 13:33:11;;;;;;;;;12.00;11.00;;;;;13.63;23.61;97464.31;6090759;28;97617;-67
2022/01/09 13:36:26;;;;;;;;;11.00;10.60;;;;;13.39;24.01;97472.19;6090789;28;97085;-67
2022/01/09 13:39:32;;;;;;;;;13.67;12.67;;;;;12.96;24.73;97474.41;6089777;28;97161;-66
2022/01/09 13:42:36;;;;;;;;;15.20;14.00;;;;;12.67;24.99;97467.91;6077989;28;96953;-65
2022/01/09 13:45:41;;;;;;;;;15.00;14.20;;;;;12.36;25.43;97472.47;6089779;28;97114;-65
2022/01/09 13:48:49;;;;;;;;;13.80;13.40;;;;;12.15;25.48;97452.69;6072048;28;97849;-65
2022/01/09 13:51:53;;;;;;;;;13.00;12.00;;;;;12.03;25.84;97470.19;6069811;28;97643;-67
2022/01/09 13:54:59;;;;;;;;;13.00;12.00;;;;;11.97;25.89;97485.56;6086229;28;96956;-66
2022/01/09 13:58:07;;;;;;;;;12.00;11.00;;;;;11.93;26.15;97475.56;6088077;28;96996;-66
2022/01/09 14:01:10;;;;;;;;;14.00;11.00;;;;;11.65;26.41;97482.16;6078828;28;96788;-64
2022/01/09 14:04:19;;;;;;;;;13.00;13.00;;;;;11.53;26.37;97495.06;6086903;28;98150;-66
2022/01/09 14:07:25;;;;;;;;;14.60;12.00;;;;;11.48;26.65;97490.47;6089870;28;96695;-65
2022/01/09 14:10:34;;;;;;;;;15.00;13.00;;;;;11.47;26.80;97494.22;6091677;28;98105;-64
2022/01/09 14:13:42;;;;;;;;;14.75;12.00;;;;;11.40;27.15;97496.34;6091264;28;96466;-64
2022/01/09 14:16:45;;;;;;;;;13.00;12.00;;;;;11.38;27.29;97495.81;6102080;28;97211;-64
2022/01/09 14:19:48;;;;;;;;;14.40;12.00;;;;;11.32;27.49;97501.41;6074835;28;97900;-64